sensor_id;sensor_type;location;lat;lon;timestamp;pressure;altitude;pressure_sealevel;temperature;humidity
36598;BME280;22607;49.550;11.940;2023-05-08T00:02:30;97287.81;;;11.51;84.29
36598;BME280;22607;49.550;11.940;2023-05-08T00:04:57;97289.00;;;11.97;80.63
36598;BME280;22607;49.550;11.940;2023-05-08T00:07:23;97282.56;;;11.43;85.24
36598;BME280;22607;49.550;11.940;2023-05-08T00:09:50;97280.25;;;11.40;84.92
36598;BME280;22607;49.550;11.940;2023-05-08T00:12:17;97285.69;;;11.47;84.48
36598;BME280;22607;49.550;11.940;2023-05-08T00:14:43;97291.94;;;11.46;85.82
36598;BME280;22607;49.550;11.940;2023-05-08T00:17:10;97277.66;;;11.07;89.04
36598;BME280;22607;49.550;11.940;2023-05-08T00:19:36;97278.31;;;11.17;88.46
36598;BME280;22607;49.550;11.940;2023-05-08T00:22:03;97280.59;;;11.12;88.36
36598;BME280;22607;49.550;11.940;2023-05-08T00:24:31;97287.50;;;11.21;88.56
36598;BME280;22607;49.550;11.940;2023-05-08T00:26:58;97290.13;;;11.13;89.38
36598;BME280;22607;49.550;11.940;2023-05-08T00:29:24;97288.50;;;11.20;88.53
36598;BME280;22607;49.550;11.940;2023-05-08T00:31:51;97288.19;;;11.15;88.38
36598;BME280;22607;49.550;11.940;2023-05-08T00:34:17;97287.84;;;11.01;91.17
36598;BME280;22607;49.550;11.940;2023-05-08T00:36:44;97299.19;;;10.94;91.33
36598;BME280;22607;49.550;11.940;2023-05-08T00:39:10;97299.81;;;10.96;91.43
36598;BME280;22607;49.550;11.940;2023-05-08T00:41:38;97296.03;;;10.90;92.76
36598;BME280;22607;49.550;11.940;2023-05-08T00:44:10;97301.13;;;11.00;90.75
36598;BME280;22607;49.550;11.940;2023-05-08T00:46:36;97311.16;;;10.88;92.49
36598;BME280;22607;49.550;11.940;2023-05-08T00:49:04;97305.22;;;10.69;94.20
36598;BME280;22607;49.550;11.940;2023-05-08T00:51:32;97312.09;;;10.70;94.43
36598;BME280;22607;49.550;11.940;2023-05-08T00:53:59;97296.38;;;10.87;93.01
36598;BME280;22607;49.550;11.940;2023-05-08T00:56:27;97303.09;;;10.81;93.40
36598;BME280;22607;49.550;11.940;2023-05-08T00:58:54;97294.34;;;10.56;94.48
36598;BME280;22607;49.550;11.940;2023-05-08T01:01:21;97301.25;;;10.48;95.16
36598;BME280;22607;49.550;11.940;2023-05-08T01:03:49;97284.50;;;10.49;94.47
36598;BME280;22607;49.550;11.940;2023-05-08T01:06:16;97304.72;;;10.66;93.23
36598;BME280;22607;49.550;11.940;2023-05-08T01:08:43;97306.16;;;10.52;94.02
36598;BME280;22607;49.550;11.940;2023-05-08T01:11:28;97306.66;;;10.47;94.58
36598;BME280;22607;49.550;11.940;2023-05-08T01:16:40;97306.81;;;10.62;93.07
36598;BME280;22607;49.550;11.940;2023-05-08T01:19:41;97312.78;;;10.29;95.82
36598;BME280;22607;49.550;11.940;2023-05-08T01:22:36;97302.78;;;10.33;94.83
36598;BME280;22607;49.550;11.940;2023-05-08T01:25:33;97314.75;;;10.35;94.66
36598;BME280;22607;49.550;11.940;2023-05-08T01:31:07;97313.88;;;10.18;96.72
36598;BME280;22607;49.550;11.940;2023-05-08T01:36:52;97313.50;;;10.05;96.99
36598;BME280;22607;49.550;11.940;2023-05-08T01:40:01;97325.63;;;10.06;97.32
36598;BME280;22607;49.550;11.940;2023-05-08T01:42:33;97332.34;;;10.00;97.37
36598;BME280;22607;49.550;11.940;2023-05-08T01:45:13;97331.50;;;10.00;97.30
36598;BME280;22607;49.550;11.940;2023-05-08T01:47:43;97334.22;;;10.16;95.74
36598;BME280;22607;49.550;11.940;2023-05-08T01:50:18;97338.09;;;10.04;96.87
36598;BME280;22607;49.550;11.940;2023-05-08T01:52:50;97330.47;;;9.84;98.18
36598;BME280;22607;49.550;11.940;2023-05-08T01:55:33;97343.44;;;9.94;96.60
36598;BME280;22607;49.550;11.940;2023-05-08T01:58:06;97352.50;;;10.00;96.76
36598;BME280;22607;49.550;11.940;2023-05-08T02:00:33;97347.34;;;9.63;99.75
36598;BME280;22607;49.550;11.940;2023-05-08T02:03:01;97354.44;;;9.71;100.00
36598;BME280;22607;49.550;11.940;2023-05-08T02:05:33;97332.94;;;9.94;96.46
36598;BME280;22607;49.550;11.940;2023-05-08T02:08:02;97356.00;;;9.82;96.85
36598;BME280;22607;49.550;11.940;2023-05-08T02:10:30;97355.66;;;9.77;97.97
36598;BME280;22607;49.550;11.940;2023-05-08T02:12:58;97338.41;;;9.48;100.00
36598;BME280;22607;49.550;11.940;2023-05-08T02:15:28;97367.97;;;9.76;99.47
36598;BME280;22607;49.550;11.940;2023-05-08T02:17:56;97348.41;;;9.70;99.08
36598;BME280;22607;49.550;11.940;2023-05-08T02:20:25;97360.59;;;9.53;100.00
36598;BME280;22607;49.550;11.940;2023-05-08T02:22:53;97362.72;;;9.76;98.53
36598;BME280;22607;49.550;11.940;2023-05-08T02:25:21;97368.69;;;9.68;99.20
36598;BME280;22607;49.550;11.940;2023-05-08T02:27:49;97364.44;;;9.67;99.90
36598;BME280;22607;49.550;11.940;2023-05-08T02:30:18;97358.22;;;9.68;99.38
36598;BME280;22607;49.550;11.940;2023-05-08T02:32:46;97364.22;;;9.87;96.70
36598;BME280;22607;49.550;11.940;2023-05-08T02:35:16;97361.59;;;9.79;97.37
36598;BME280;22607;49.550;11.940;2023-05-08T02:37:45;97367.41;;;9.72;97.89
36598;BME280;22607;49.550;11.940;2023-05-08T02:40:16;97365.44;;;9.66;97.86
36598;BME280;22607;49.550;11.940;2023-05-08T02:42:43;97370.38;;;9.69;99.84
36598;BME280;22607;49.550;11.940;2023-05-08T02:45:10;97375.56;;;9.61;99.14
36598;BME280;22607;49.550;11.940;2023-05-08T02:47:53;97378.25;;;9.69;97.51
36598;BME280;22607;49.550;11.940;2023-05-08T02:50:27;97378.09;;;9.53;97.85
36598;BME280;22607;49.550;11.940;2023-05-08T02:53:05;97387.88;;;9.42;100.00
36598;BME280;22607;49.550;11.940;2023-05-08T02:55:41;97388.59;;;9.53;100.00
36598;BME280;22607;49.550;11.940;2023-05-08T02:58:21;97374.06;;;9.40;98.75
36598;BME280;22607;49.550;11.940;2023-05-08T03:03:39;97362.84;;;9.30;100.00
36598;BME280;22607;49.550;11.940;2023-05-08T03:06:12;97384.88;;;9.37;100.00
36598;BME280;22607;49.550;11.940;2023-05-08T03:08:40;97375.72;;;9.41;98.76
36598;BME280;22607;49.550;11.940;2023-05-08T03:11:14;97382.09;;;9.21;100.00
36598;BME280;22607;49.550;11.940;2023-05-08T03:13:41;97395.34;;;9.19;100.00
36598;BME280;22607;49.550;11.940;2023-05-08T03:16:19;97394.91;;;9.24;100.00
36598;BME280;22607;49.550;11.940;2023-05-08T03:18:52;97396.56;;;9.25;100.00
36598;BME280;22607;49.550;11.940;2023-05-08T03:21:21;97374.00;;;9.14;100.00
36598;BME280;22607;49.550;11.940;2023-05-08T03:23:51;97377.59;;;8.95;100.00
36598;BME280;22607;49.550;11.940;2023-05-08T03:26:18;97392.34;;;9.14;100.00
36598;BME280;22607;49.550;11.940;2023-05-08T03:28:49;97385.97;;;9.16;100.00
36598;BME280;22607;49.550;11.940;2023-05-08T03:31:17;97389.97;;;9.21;100.00
36598;BME280;22607;49.550;11.940;2023-05-08T03:33:47;97378.22;;;9.06;100.00
36598;BME280;22607;49.550;11.940;2023-05-08T03:36:14;97380.88;;;9.15;100.00
36598;BME280;22607;49.550;11.940;2023-05-08T03:38:41;97386.53;;;9.20;100.00
36598;BME280;22607;49.550;11.940;2023-05-08T03:41:08;97387.19;;;9.22;100.00
36598;BME280;22607;49.550;11.940;2023-05-08T03:43:38;97390.66;;;9.23;100.00
36598;BME280;22607;49.550;11.940;2023-05-08T03:46:06;97379.19;;;9.24;100.00
36598;BME280;22607;49.550;11.940;2023-05-08T03:48:34;97391.28;;;8.88;100.00
36598;BME280;22607;49.550;11.940;2023-05-08T03:51:02;97391.19;;;8.80;100.00
36598;BME280;22607;49.550;11.940;2023-05-08T03:53:30;97389.81;;;9.04;100.00
36598;BME280;22607;49.550;11.940;2023-05-08T03:55:58;97402.53;;;9.17;100.00
36598;BME280;22607;49.550;11.940;2023-05-08T03:58:31;97399.31;;;9.05;100.00
36598;BME280;22607;49.550;11.940;2023-05-08T04:01:07;97407.31;;;9.22;100.00
36598;BME280;22607;49.550;11.940;2023-05-08T04:03:53;97399.91;;;9.17;100.00
36598;BME280;22607;49.550;11.940;2023-05-08T04:06:30;97409.81;;;9.23;100.00
36598;BME280;22607;49.550;11.940;2023-05-08T04:10:02;97411.34;;;8.98;100.00
36598;BME280;22607;49.550;11.940;2023-05-08T04:15:24;97393.94;;;9.06;100.00
36598;BME280;22607;49.550;11.940;2023-05-08T04:17:58;97411.81;;;9.11;100.00
36598;BME280;22607;49.550;11.940;2023-05-08T04:20:26;97410.47;;;9.07;100.00
36598;BME280;22607;49.550;11.940;2023-05-08T04:33:34;97402.44;;;9.27;100.00
36598;BME280;22607;49.550;11.940;2023-05-08T04:36:01;97415.28;;;9.30;100.00
36598;BME280;22607;49.550;11.940;2023-05-08T04:38:28;97420.97;;;9.25;100.00
36598;BME280;22607;49.550;11.940;2023-05-08T04:40:55;97414.28;;;9.31;100.00
36598;BME280;22607;49.550;11.940;2023-05-08T04:43:21;97425.31;;;9.35;100.00
36598;BME280;22607;49.550;11.940;2023-05-08T04:45:48;97420.22;;;9.51;100.00
36598;BME280;22607;49.550;11.940;2023-05-08T04:48:15;97419.84;;;9.46;100.00
36598;BME280;22607;49.550;11.940;2023-05-08T04:50:56;97419.31;;;9.61;99.99
36598;BME280;22607;49.550;11.940;2023-05-08T04:53:23;97425.13;;;9.72;100.00
36598;BME280;22607;49.550;11.940;2023-05-08T04:56:00;97433.50;;;9.94;98.39
36598;BME280;22607;49.550;11.940;2023-05-08T04:58:27;97427.63;;;10.01;97.55
36598;BME280;22607;49.550;11.940;2023-05-08T05:00:54;97411.53;;;9.95;98.07
36598;BME280;22607;49.550;11.940;2023-05-08T05:03:20;97422.38;;;10.01;96.36
36598;BME280;22607;49.550;11.940;2023-05-08T05:05:47;97426.34;;;10.05;96.37
36598;BME280;22607;49.550;11.940;2023-05-08T05:08:13;97433.59;;;10.37;94.88
36598;BME280;22607;49.550;11.940;2023-05-08T05:11:11;97437.50;;;10.60;92.24
36598;BME280;22607;49.550;11.940;2023-05-08T05:13:37;97419.16;;;10.68;90.32
36598;BME280;22607;49.550;11.940;2023-05-08T05:16:11;97429.72;;;10.85;88.30
36598;BME280;22607;49.550;11.940;2023-05-08T05:18:38;97433.00;;;10.87;88.62
36598;BME280;22607;49.550;11.940;2023-05-08T05:21:05;97439.13;;;11.04;88.37
36598;BME280;22607;49.550;11.940;2023-05-08T05:23:32;97436.06;;;11.25;85.45
36598;BME280;22607;49.550;11.940;2023-05-08T05:25:59;97432.28;;;11.28;84.72
36598;BME280;22607;49.550;11.940;2023-05-08T05:28:25;97432.19;;;10.86;86.87
36598;BME280;22607;49.550;11.940;2023-05-08T05:31:17;97439.84;;;10.71;89.88
36598;BME280;22607;49.550;11.940;2023-05-08T05:33:55;97442.56;;;10.96;89.32
36598;BME280;22607;49.550;11.940;2023-05-08T05:40:08;97445.47;;;11.45;85.63
36598;BME280;22607;49.550;11.940;2023-05-08T05:42:35;97447.41;;;11.26;86.58
36598;BME280;22607;49.550;11.940;2023-05-08T05:45:02;97436.28;;;11.49;85.08
36598;BME280;22607;49.550;11.940;2023-05-08T05:47:29;97443.34;;;11.57;83.71
36598;BME280;22607;49.550;11.940;2023-05-08T05:49:56;97441.31;;;11.25;85.99
36598;BME280;22607;49.550;11.940;2023-05-08T05:52:23;97439.31;;;11.11;86.87
36598;BME280;22607;49.550;11.940;2023-05-08T05:54:49;97444.44;;;11.12;87.38
36598;BME280;22607;49.550;11.940;2023-05-08T05:57:16;97439.19;;;11.29;85.02
36598;BME280;22607;49.550;11.940;2023-05-08T05:59:43;97433.41;;;11.17;86.71
36598;BME280;22607;49.550;11.940;2023-05-08T06:02:09;97448.25;;;11.93;81.94
36598;BME280;22607;49.550;11.940;2023-05-08T06:04:39;97435.72;;;12.45;78.14
36598;BME280;22607;49.550;11.940;2023-05-08T06:07:06;97445.72;;;12.90;75.65
36598;BME280;22607;49.550;11.940;2023-05-08T06:09:33;97441.69;;;13.10;72.32
36598;BME280;22607;49.550;11.940;2023-05-08T06:12:00;97431.19;;;13.25;71.45
36598;BME280;22607;49.550;11.940;2023-05-08T06:14:27;97443.03;;;13.06;73.06
36598;BME280;22607;49.550;11.940;2023-05-08T06:16:53;97434.56;;;13.43;69.27
36598;BME280;22607;49.550;11.940;2023-05-08T06:19:20;97434.13;;;13.62;67.58
36598;BME280;22607;49.550;11.940;2023-05-08T06:21:46;97445.63;;;13.15;70.15
36598;BME280;22607;49.550;11.940;2023-05-08T06:24:13;97437.03;;;12.89;72.11
36598;BME280;22607;49.550;11.940;2023-05-08T06:26:39;97447.09;;;13.41;68.74
36598;BME280;22607;49.550;11.940;2023-05-08T06:29:06;97421.31;;;13.74;67.80
36598;BME280;22607;49.550;11.940;2023-05-08T06:31:33;97442.97;;;14.23;66.34
36598;BME280;22607;49.550;11.940;2023-05-08T06:33:59;97440.91;;;14.49;65.25
36598;BME280;22607;49.550;11.940;2023-05-08T06:36:34;97437.56;;;14.55;63.28
36598;BME280;22607;49.550;11.940;2023-05-08T06:39:04;97449.38;;;14.59;63.52
36598;BME280;22607;49.550;11.940;2023-05-08T06:41:33;97452.94;;;14.66;62.30
36598;BME280;22607;49.550;11.940;2023-05-08T06:43:59;97447.91;;;14.72;61.95
36598;BME280;22607;49.550;11.940;2023-05-08T06:46:26;97451.13;;;14.67;62.79
36598;BME280;22607;49.550;11.940;2023-05-08T06:48:54;97449.13;;;14.99;62.19
36598;BME280;22607;49.550;11.940;2023-05-08T06:51:20;97435.81;;;14.92;62.04
36598;BME280;22607;49.550;11.940;2023-05-08T06:53:48;97446.84;;;14.81;62.06
36598;BME280;22607;49.550;11.940;2023-05-08T06:56:14;97444.00;;;14.67;62.47
36598;BME280;22607;49.550;11.940;2023-05-08T06:58:41;97441.19;;;14.69;62.57
36598;BME280;22607;49.550;11.940;2023-05-08T07:01:11;97443.09;;;14.60;63.04
36598;BME280;22607;49.550;11.940;2023-05-08T07:03:38;97439.91;;;14.35;63.59
36598;BME280;22607;49.550;11.940;2023-05-08T07:06:07;97440.81;;;14.42;63.14
36598;BME280;22607;49.550;11.940;2023-05-08T07:08:36;97433.63;;;14.51;62.87
36598;BME280;22607;49.550;11.940;2023-05-08T07:11:03;97439.44;;;14.31;64.78
36598;BME280;22607;49.550;11.940;2023-05-08T07:13:32;97439.00;;;14.57;64.09
36598;BME280;22607;49.550;11.940;2023-05-08T07:15:59;97433.88;;;14.86;63.80
36598;BME280;22607;49.550;11.940;2023-05-08T07:18:26;97443.44;;;15.02;63.00
36598;BME280;22607;49.550;11.940;2023-05-08T07:20:52;97443.56;;;14.79;62.59
36598;BME280;22607;49.550;11.940;2023-05-08T07:23:19;97427.16;;;14.38;63.91
36598;BME280;22607;49.550;11.940;2023-05-08T07:25:48;97437.72;;;14.68;65.36
36598;BME280;22607;49.550;11.940;2023-05-08T07:28:14;97436.53;;;14.56;64.43
36598;BME280;22607;49.550;11.940;2023-05-08T07:30:50;97435.91;;;14.84;63.00
36598;BME280;22607;49.550;11.940;2023-05-08T07:33:18;97437.88;;;14.97;63.95
36598;BME280;22607;49.550;11.940;2023-05-08T07:35:44;97432.06;;;14.72;64.06
36598;BME280;22607;49.550;11.940;2023-05-08T07:38:11;97438.72;;;14.82;64.57
36598;BME280;22607;49.550;11.940;2023-05-08T07:40:38;97445.34;;;15.08;63.46
36598;BME280;22607;49.550;11.940;2023-05-08T07:43:05;97434.97;;;15.29;62.55
36598;BME280;22607;49.550;11.940;2023-05-08T07:45:38;97441.78;;;15.16;61.55
36598;BME280;22607;49.550;11.940;2023-05-08T07:48:04;97439.00;;;14.88;62.38
36598;BME280;22607;49.550;11.940;2023-05-08T07:50:32;97439.31;;;14.78;63.51
36598;BME280;22607;49.550;11.940;2023-05-08T07:52:59;97439.22;;;15.08;63.80
36598;BME280;22607;49.550;11.940;2023-05-08T07:55:26;97432.63;;;14.82;62.72
36598;BME280;22607;49.550;11.940;2023-05-08T07:57:52;97442.78;;;15.15;63.40
36598;BME280;22607;49.550;11.940;2023-05-08T08:00:19;97417.34;;;15.58;62.02
36598;BME280;22607;49.550;11.940;2023-05-08T08:02:45;97427.88;;;15.51;61.32
36598;BME280;22607;49.550;11.940;2023-05-08T08:05:14;97433.53;;;15.48;62.02
36598;BME280;22607;49.550;11.940;2023-05-08T08:07:41;97435.38;;;15.69;62.09
36598;BME280;22607;49.550;11.940;2023-05-08T08:10:08;97430.06;;;15.47;61.35
36598;BME280;22607;49.550;11.940;2023-05-08T08:12:35;97433.59;;;15.55;61.67
36598;BME280;22607;49.550;11.940;2023-05-08T08:15:02;97442.69;;;15.67;60.96
36598;BME280;22607;49.550;11.940;2023-05-08T08:17:30;97445.69;;;15.86;60.04
36598;BME280;22607;49.550;11.940;2023-05-08T08:19:57;97431.88;;;15.91;60.08
36598;BME280;22607;49.550;11.940;2023-05-08T08:22:24;97429.16;;;16.06;58.92
36598;BME280;22607;49.550;11.940;2023-05-08T08:24:53;97435.78;;;16.17;58.70
36598;BME280;22607;49.550;11.940;2023-05-08T08:27:21;97432.06;;;16.11;59.56
36598;BME280;22607;49.550;11.940;2023-05-08T08:29:53;97411.78;;;16.25;57.78
36598;BME280;22607;49.550;11.940;2023-05-08T08:32:40;97430.31;;;16.60;58.81
36598;BME280;22607;49.550;11.940;2023-05-08T08:35:07;97432.81;;;16.69;58.95
36598;BME280;22607;49.550;11.940;2023-05-08T08:37:34;97430.78;;;16.77;57.94
36598;BME280;22607;49.550;11.940;2023-05-08T08:40:01;97438.06;;;16.26;58.89
36598;BME280;22607;49.550;11.940;2023-05-08T08:42:27;97435.81;;;16.23;58.96
36598;BME280;22607;49.550;11.940;2023-05-08T08:44:54;97447.56;;;16.49;57.32
36598;BME280;22607;49.550;11.940;2023-05-08T08:47:28;97426.38;;;16.14;56.77
36598;BME280;22607;49.550;11.940;2023-05-08T08:49:57;97441.91;;;16.52;57.40
36598;BME280;22607;49.550;11.940;2023-05-08T08:55:05;97456.50;;;16.13;58.42
36598;BME280;22607;49.550;11.940;2023-05-08T08:57:36;97438.34;;;16.38;58.37
36598;BME280;22607;49.550;11.940;2023-05-08T09:00:06;97433.63;;;16.76;59.01
36598;BME280;22607;49.550;11.940;2023-05-08T09:02:35;97436.53;;;16.81;57.75
36598;BME280;22607;49.550;11.940;2023-05-08T09:05:02;97432.00;;;16.75;56.86
36598;BME280;22607;49.550;11.940;2023-05-08T09:07:29;97437.53;;;16.80;56.99
36598;BME280;22607;49.550;11.940;2023-05-08T09:09:58;97431.53;;;16.58;56.75
36598;BME280;22607;49.550;11.940;2023-05-08T09:12:25;97436.91;;;16.78;56.98
36598;BME280;22607;49.550;11.940;2023-05-08T09:14:51;97424.75;;;16.48;57.39
36598;BME280;22607;49.550;11.940;2023-05-08T09:17:23;97441.41;;;16.77;56.15
36598;BME280;22607;49.550;11.940;2023-05-08T09:19:49;97442.19;;;16.71;57.26
36598;BME280;22607;49.550;11.940;2023-05-08T09:22:16;97428.41;;;16.96;58.10
36598;BME280;22607;49.550;11.940;2023-05-08T09:27:27;97431.03;;;17.52;56.35
36598;BME280;22607;49.550;11.940;2023-05-08T09:30:04;97434.94;;;17.96;55.69
36598;BME280;22607;49.550;11.940;2023-05-08T09:32:33;97429.84;;;18.08;54.76
36598;BME280;22607;49.550;11.940;2023-05-08T09:35:00;97432.69;;;17.73;53.66
36598;BME280;22607;49.550;11.940;2023-05-08T09:37:27;97418.34;;;17.34;54.55
36598;BME280;22607;49.550;11.940;2023-05-08T09:40:11;97422.63;;;17.41;54.72
36598;BME280;22607;49.550;11.940;2023-05-08T09:42:38;97431.84;;;17.52;55.36
36598;BME280;22607;49.550;11.940;2023-05-08T09:45:05;97430.25;;;17.78;53.96
36598;BME280;22607;49.550;11.940;2023-05-08T09:47:34;97408.59;;;17.81;54.79
36598;BME280;22607;49.550;11.940;2023-05-08T09:50:05;97426.56;;;17.86;53.56
36598;BME280;22607;49.550;11.940;2023-05-08T09:52:45;97425.34;;;17.89;53.71
36598;BME280;22607;49.550;11.940;2023-05-08T09:55:12;97427.78;;;17.83;54.02
36598;BME280;22607;49.550;11.940;2023-05-08T09:57:50;97424.94;;;17.92;54.22
36598;BME280;22607;49.550;11.940;2023-05-08T10:00:17;97421.25;;;18.20;54.29
36598;BME280;22607;49.550;11.940;2023-05-08T10:02:55;97416.34;;;17.96;53.09
36598;BME280;22607;49.550;11.940;2023-05-08T10:05:28;97401.03;;;17.78;53.21
36598;BME280;22607;49.550;11.940;2023-05-08T10:07:57;97431.47;;;17.82;53.85
36598;BME280;22607;49.550;11.940;2023-05-08T10:10:28;97426.56;;;18.06;52.88
36598;BME280;22607;49.550;11.940;2023-05-08T10:12:57;97421.84;;;18.22;53.83
36598;BME280;22607;49.550;11.940;2023-05-08T10:15:27;97420.81;;;18.36;52.70
36598;BME280;22607;49.550;11.940;2023-05-08T10:18:02;97423.50;;;18.23;52.17
36598;BME280;22607;49.550;11.940;2023-05-08T10:20:30;97419.59;;;18.26;53.42
36598;BME280;22607;49.550;11.940;2023-05-08T10:22:58;97423.22;;;18.58;52.23
36598;BME280;22607;49.550;11.940;2023-05-08T10:25:25;97422.00;;;18.47;52.24
36598;BME280;22607;49.550;11.940;2023-05-08T10:28:12;97420.44;;;18.26;51.76
36598;BME280;22607;49.550;11.940;2023-05-08T10:30:45;97413.47;;;18.25;51.33
36598;BME280;22607;49.550;11.940;2023-05-08T10:33:14;97424.78;;;18.73;52.28
36598;BME280;22607;49.550;11.940;2023-05-08T10:35:41;97417.53;;;19.00;50.19
36598;BME280;22607;49.550;11.940;2023-05-08T10:38:08;97416.09;;;18.52;50.78
36598;BME280;22607;49.550;11.940;2023-05-08T10:40:36;97410.94;;;18.64;51.75
36598;BME280;22607;49.550;11.940;2023-05-08T10:43:05;97423.03;;;18.53;51.13
36598;BME280;22607;49.550;11.940;2023-05-08T10:45:33;97414.53;;;18.83;51.56
36598;BME280;22607;49.550;11.940;2023-05-08T10:51:00;97418.13;;;18.43;50.83
36598;BME280;22607;49.550;11.940;2023-05-08T10:53:45;97407.88;;;18.54;51.62
36598;BME280;22607;49.550;11.940;2023-05-08T10:56:14;97414.66;;;18.49;51.05
36598;BME280;22607;49.550;11.940;2023-05-08T10:58:40;97411.81;;;18.38;51.57
36598;BME280;22607;49.550;11.940;2023-05-08T11:03:39;97395.44;;;18.41;52.04
36598;BME280;22607;49.550;11.940;2023-05-08T11:06:07;97414.06;;;18.41;51.63
36598;BME280;22607;49.550;11.940;2023-05-08T11:08:42;97410.81;;;18.25;52.65
36598;BME280;22607;49.550;11.940;2023-05-08T11:11:16;97402.94;;;18.64;51.22
36598;BME280;22607;49.550;11.940;2023-05-08T11:13:52;97404.00;;;18.56;51.00
36598;BME280;22607;49.550;11.940;2023-05-08T11:19:25;97395.25;;;18.95;49.99
36598;BME280;22607;49.550;11.940;2023-05-08T11:22:22;97412.56;;;18.58;49.71
36598;BME280;22607;49.550;11.940;2023-05-08T11:27:37;97411.31;;;18.68;48.92
36598;BME280;22607;49.550;11.940;2023-05-08T11:35:42;97400.69;;;18.61;49.87
36598;BME280;22607;49.550;11.940;2023-05-08T11:48:31;97393.00;;;18.26;51.02
36598;BME280;22607;49.550;11.940;2023-05-08T11:50:59;97389.81;;;18.69;49.65
36598;BME280;22607;49.550;11.940;2023-05-08T11:53:26;97390.06;;;18.61;49.67
36598;BME280;22607;49.550;11.940;2023-05-08T11:55:59;97396.50;;;18.85;49.85
36598;BME280;22607;49.550;11.940;2023-05-08T11:58:26;97401.41;;;18.88;48.99
36598;BME280;22607;49.550;11.940;2023-05-08T12:01:03;97395.75;;;18.71;50.02
36598;BME280;22607;49.550;11.940;2023-05-08T12:03:30;97397.34;;;18.79;49.95
36598;BME280;22607;49.550;11.940;2023-05-08T12:05:58;97396.63;;;18.58;49.89
36598;BME280;22607;49.550;11.940;2023-05-08T12:08:25;97392.59;;;18.35;50.03
36598;BME280;22607;49.550;11.940;2023-05-08T12:10:54;97401.41;;;18.88;50.43
36598;BME280;22607;49.550;11.940;2023-05-08T12:13:24;97396.78;;;18.70;49.26
36598;BME280;22607;49.550;11.940;2023-05-08T12:15:52;97394.38;;;19.01;49.07
36598;BME280;22607;49.550;11.940;2023-05-08T12:18:21;97397.66;;;19.03;47.87
36598;BME280;22607;49.550;11.940;2023-05-08T12:20:52;97398.88;;;19.07;49.45
36598;BME280;22607;49.550;11.940;2023-05-08T12:23:19;97396.31;;;18.87;48.26
36598;BME280;22607;49.550;11.940;2023-05-08T12:25:45;97392.38;;;18.96;48.21
36598;BME280;22607;49.550;11.940;2023-05-08T12:28:12;97392.00;;;18.86;47.75
36598;BME280;22607;49.550;11.940;2023-05-08T12:30:40;97391.72;;;19.01;47.35
36598;BME280;22607;49.550;11.940;2023-05-08T12:33:07;97401.19;;;18.90;48.01
36598;BME280;22607;49.550;11.940;2023-05-08T12:35:35;97402.50;;;19.20;47.91
36598;BME280;22607;49.550;11.940;2023-05-08T12:38:03;97406.88;;;19.07;47.68
36598;BME280;22607;49.550;11.940;2023-05-08T12:40:39;97398.00;;;19.20;46.41
36598;BME280;22607;49.550;11.940;2023-05-08T12:43:08;97401.28;;;19.15;47.11
36598;BME280;22607;49.550;11.940;2023-05-08T12:45:40;97401.63;;;19.26;47.55
36598;BME280;22607;49.550;11.940;2023-05-08T12:48:12;97391.38;;;19.30;48.04
36598;BME280;22607;49.550;11.940;2023-05-08T12:50:43;97392.97;;;19.37;47.07
36598;BME280;22607;49.550;11.940;2023-05-08T12:53:14;97391.63;;;19.21;46.31
36598;BME280;22607;49.550;11.940;2023-05-08T12:55:57;97398.47;;;19.10;46.77
36598;BME280;22607;49.550;11.940;2023-05-08T12:58:27;97400.31;;;19.03;46.76
36598;BME280;22607;49.550;11.940;2023-05-08T13:01:08;97400.09;;;19.11;49.69
36598;BME280;22607;49.550;11.940;2023-05-08T13:03:38;97397.47;;;19.37;47.04
36598;BME280;22607;49.550;11.940;2023-05-08T13:06:05;97392.16;;;19.37;47.76
36598;BME280;22607;49.550;11.940;2023-05-08T13:08:36;97380.25;;;19.39;46.61
36598;BME280;22607;49.550;11.940;2023-05-08T13:11:06;97390.91;;;19.65;46.58
36598;BME280;22607;49.550;11.940;2023-05-08T13:13:35;97391.13;;;19.63;44.83
36598;BME280;22607;49.550;11.940;2023-05-08T13:16:03;97380.53;;;19.31;46.86
36598;BME280;22607;49.550;11.940;2023-05-08T13:18:30;97394.69;;;19.25;47.06
36598;BME280;22607;49.550;11.940;2023-05-08T13:20:57;97389.56;;;19.23;46.10
36598;BME280;22607;49.550;11.940;2023-05-08T13:23:24;97390.22;;;19.19;45.91
36598;BME280;22607;49.550;11.940;2023-05-08T13:25:51;97388.56;;;19.57;47.12
36598;BME280;22607;49.550;11.940;2023-05-08T13:28:17;97394.84;;;19.62;44.89
36598;BME280;22607;49.550;11.940;2023-05-08T13:30:44;97387.50;;;19.58;44.71
36598;BME280;22607;49.550;11.940;2023-05-08T13:33:14;97382.16;;;19.32;45.05
36598;BME280;22607;49.550;11.940;2023-05-08T13:35:41;97379.66;;;19.37;45.17
36598;BME280;22607;49.550;11.940;2023-05-08T13:38:07;97374.13;;;19.39;44.46
36598;BME280;22607;49.550;11.940;2023-05-08T13:40:34;97370.97;;;19.49;44.47
36598;BME280;22607;49.550;11.940;2023-05-08T13:43:01;97368.94;;;19.19;44.69
36598;BME280;22607;49.550;11.940;2023-05-08T13:45:28;97368.69;;;19.52;45.43
36598;BME280;22607;49.550;11.940;2023-05-08T13:48:07;97369.34;;;19.73;46.86
36598;BME280;22607;49.550;11.940;2023-05-08T13:50:37;97367.94;;;19.71;44.48
36598;BME280;22607;49.550;11.940;2023-05-08T13:53:03;97359.72;;;19.47;44.56
36598;BME280;22607;49.550;11.940;2023-05-08T13:55:37;97358.72;;;19.92;44.94
36598;BME280;22607;49.550;11.940;2023-05-08T13:58:03;97347.53;;;19.83;45.42
36598;BME280;22607;49.550;11.940;2023-05-08T14:00:30;97347.75;;;19.56;44.78
36598;BME280;22607;49.550;11.940;2023-05-08T14:02:56;97356.91;;;19.67;46.57
36598;BME280;22607;49.550;11.940;2023-05-08T14:05:23;97341.59;;;19.55;46.43
36598;BME280;22607;49.550;11.940;2023-05-08T14:07:49;97350.56;;;19.87;45.56